CheckWX is a tool to help pilots better visualize weather data.  It is not intended as a substitute for an official pre-flight weather briefing.

07:53:55 UTC

KOAK METAR
Metropolitan Oakland International Airport
Oakland, California, USA
Current

1 hour ago

KOAK 240653Z 12006KT 10SM FEW020 12/09 A3039 RMK AO2 SLP291 T01170089
Observed
Feb-24 @ 06:53 UTC
Wind
  • 120° at 6 KTS
Visibility
10 SM
Flight Rules
VFR
Cloud Levels
  • Few at 2,000' AGL
Temperature
12°C / 54°F
Dewpoint
C / 48°F
Humidity
82%
Altimeter
30.39" Hg
Pressure
1029.12 hPa
Previous

2 hours ago

KOAK 240553Z 00000KT 10SM FEW010 FEW250 11/09 A3038 RMK AO2 SLP288 T01060089 10161 20106 53010
Observed
Feb-24 @ 05:53 UTC
Visibility
10 SM
Flight Rules
VFR
Cloud Levels
  • Few at 1,000' AGL
  • Few at 25,000' AGL
Temperature
11°C / 52°F
Dewpoint
C / 48°F
Humidity
88%
Altimeter
30.38" Hg
Pressure
1028.82 hPa
Previous

3 hours ago

KOAK 240453Z 00000KT 10SM FEW010 FEW250 11/09 A3037 RMK AO2 SLP284 T01110089
Observed
Feb-24 @ 04:53 UTC
Visibility
10 SM
Flight Rules
VFR
Cloud Levels
  • Few at 1,000' AGL
  • Few at 25,000' AGL
Temperature
11°C / 52°F
Dewpoint
C / 48°F
Humidity
88%
Altimeter
30.37" Hg
Pressure
1028.42 hPa